CA80 weather

Memorial Hospital Los Banos Heliport
Los Banos, California, United States

Public forecast

Using degrees Fahrenheit for public forecast. Weather courtesy of forecast.io.

Closest aviation weather report (METAR) to Memorial Hospital Los Banos Heliport

Closest report is Merced Regional Macready Field, 21.1 nm (39.2 km) NE. Retrieved 2019/10/23 20:53 UTC (56 minutes ago):

KMCE 232053Z AUTO 33008KT 10SM CLR 26/09 A2995 RMK AO2 SLP139 T02610089 58020

Closest aviation forecast (TAF) to Memorial Hospital Los Banos Heliport

Closest forecast is Merced Regional Macready Field, 21.1 nm (39.2 km) NE. Retrieved 2019/10/23 18:22 UTC (3 hours ago):

TAF KMCE 231720Z 2318/2418 VRB05KT P6SM SKC